sensor_id;sensor_type;location;lat;lon;timestamp;pressure;altitude;pressure_sealevel;temperature
61977;BMP280;45905;50.570;10.428;2022-07-15T00:00:06;98296.41;;;16.33
61977;BMP280;45905;50.570;10.428;2022-07-15T00:02:36;98284.94;;;16.29
61977;BMP280;45905;50.570;10.428;2022-07-15T00:05:06;98282.94;;;16.25
61977;BMP280;45905;50.570;10.428;2022-07-15T00:07:35;98291.16;;;16.21
61977;BMP280;45905;50.570;10.428;2022-07-15T00:10:03;98288.97;;;16.18
61977;BMP280;45905;50.570;10.428;2022-07-15T00:12:55;98287.72;;;16.14
61977;BMP280;45905;50.570;10.428;2022-07-15T00:15:31;98289.09;;;16.10
61977;BMP280;45905;50.570;10.428;2022-07-15T00:18:00;98295.34;;;16.07
61977;BMP280;45905;50.570;10.428;2022-07-15T00:20:31;98300.56;;;16.00
61977;BMP280;45905;50.570;10.428;2022-07-15T00:23:04;98293.38;;;15.95
61977;BMP280;45905;50.570;10.428;2022-07-15T00:25:32;98293.13;;;15.90
61977;BMP280;45905;50.570;10.428;2022-07-15T00:28:07;98293.66;;;15.86
61977;BMP280;45905;50.570;10.428;2022-07-15T00:30:39;98299.31;;;15.82
61977;BMP280;45905;50.570;10.428;2022-07-15T00:33:09;98306.69;;;15.77
61977;BMP280;45905;50.570;10.428;2022-07-15T00:35:38;98302.47;;;15.69
61977;BMP280;45905;50.570;10.428;2022-07-15T00:38:09;98305.56;;;15.65
61977;BMP280;45905;50.570;10.428;2022-07-15T00:40:45;98296.66;;;15.61
61977;BMP280;45905;50.570;10.428;2022-07-15T00:43:14;98301.34;;;15.58
61977;BMP280;45905;50.570;10.428;2022-07-15T00:45:44;98296.59;;;15.55
61977;BMP280;45905;50.570;10.428;2022-07-15T00:48:12;98294.56;;;15.50
61977;BMP280;45905;50.570;10.428;2022-07-15T00:50:46;98300.81;;;15.48
61977;BMP280;45905;50.570;10.428;2022-07-15T00:53:18;98301.50;;;15.42
61977;BMP280;45905;50.570;10.428;2022-07-15T00:55:47;98295.97;;;15.39
61977;BMP280;45905;50.570;10.428;2022-07-15T00:58:18;98296.47;;;15.34
61977;BMP280;45905;50.570;10.428;2022-07-15T01:00:48;98296.06;;;15.31
61977;BMP280;45905;50.570;10.428;2022-07-15T01:03:19;98296.41;;;15.28
61977;BMP280;45905;50.570;10.428;2022-07-15T01:05:48;98305.56;;;15.23
61977;BMP280;45905;50.570;10.428;2022-07-15T01:08:16;98306.06;;;15.18
61977;BMP280;45905;50.570;10.428;2022-07-15T01:10:48;98302.47;;;15.13
61977;BMP280;45905;50.570;10.428;2022-07-15T01:13:18;98308.84;;;15.09
61977;BMP280;45905;50.570;10.428;2022-07-15T01:15:48;98298.19;;;15.06
61977;BMP280;45905;50.570;10.428;2022-07-15T01:18:16;98306.84;;;15.05
61977;BMP280;45905;50.570;10.428;2022-07-15T01:20:45;98307.19;;;15.02
61977;BMP280;45905;50.570;10.428;2022-07-15T01:23:17;98312.00;;;14.97
61977;BMP280;45905;50.570;10.428;2022-07-15T01:25:52;98314.06;;;14.93
61977;BMP280;45905;50.570;10.428;2022-07-15T01:28:21;98313.97;;;14.87
61977;BMP280;45905;50.570;10.428;2022-07-15T01:30:49;98308.59;;;14.82
61977;BMP280;45905;50.570;10.428;2022-07-15T01:33:16;98309.09;;;14.78
61977;BMP280;45905;50.570;10.428;2022-07-15T01:35:43;98298.44;;;14.74
61977;BMP280;45905;50.570;10.428;2022-07-15T01:38:11;98309.78;;;14.72
61977;BMP280;45905;50.570;10.428;2022-07-15T01:40:39;98317.94;;;14.68
61977;BMP280;45905;50.570;10.428;2022-07-15T01:43:07;98313.97;;;14.65
61977;BMP280;45905;50.570;10.428;2022-07-15T01:45:35;98315.09;;;14.63
61977;BMP280;45905;50.570;10.428;2022-07-15T01:48:03;98313.06;;;14.58
61977;BMP280;45905;50.570;10.428;2022-07-15T01:50:42;98322.81;;;14.55
61977;BMP280;45905;50.570;10.428;2022-07-15T01:53:14;98320.78;;;14.50
61977;BMP280;45905;50.570;10.428;2022-07-15T01:55:41;98313.63;;;14.46
61977;BMP280;45905;50.570;10.428;2022-07-15T01:58:08;98311.59;;;14.42
61977;BMP280;45905;50.570;10.428;2022-07-15T02:00:37;98310.16;;;14.39
61977;BMP280;45905;50.570;10.428;2022-07-15T02:03:04;98311.47;;;14.35
61977;BMP280;45905;50.570;10.428;2022-07-15T02:05:31;98316.91;;;14.32
61977;BMP280;45905;50.570;10.428;2022-07-15T02:08:02;98308.78;;;14.29
61977;BMP280;45905;50.570;10.428;2022-07-15T02:10:31;98312.50;;;14.27
61977;BMP280;45905;50.570;10.428;2022-07-15T02:13:13;98312.81;;;14.24
61977;BMP280;45905;50.570;10.428;2022-07-15T02:15:46;98305.66;;;14.19
61977;BMP280;45905;50.570;10.428;2022-07-15T02:18:13;98308.72;;;14.15
61977;BMP280;45905;50.570;10.428;2022-07-15T02:20:41;98300.78;;;14.10
61977;BMP280;45905;50.570;10.428;2022-07-15T02:23:08;98306.22;;;14.07
61977;BMP280;45905;50.570;10.428;2022-07-15T02:25:37;98304.97;;;14.03
61977;BMP280;45905;50.570;10.428;2022-07-15T02:28:06;98305.00;;;13.95
61977;BMP280;45905;50.570;10.428;2022-07-15T02:30:37;98304.38;;;13.93
61977;BMP280;45905;50.570;10.428;2022-07-15T02:33:06;98310.41;;;13.93
61977;BMP280;45905;50.570;10.428;2022-07-15T02:35:34;98302.31;;;13.89
61977;BMP280;45905;50.570;10.428;2022-07-15T02:38:01;98298.34;;;13.87
61977;BMP280;45905;50.570;10.428;2022-07-15T02:40:31;98302.97;;;13.83
61977;BMP280;45905;50.570;10.428;2022-07-15T02:43:02;98304.88;;;13.81
61977;BMP280;45905;50.570;10.428;2022-07-15T02:45:36;98305.03;;;13.80
61977;BMP280;45905;50.570;10.428;2022-07-15T02:48:07;98313.00;;;13.77
61977;BMP280;45905;50.570;10.428;2022-07-15T02:50:39;98311.56;;;13.74
61977;BMP280;45905;50.570;10.428;2022-07-15T02:53:08;98314.47;;;13.72
61977;BMP280;45905;50.570;10.428;2022-07-15T02:55:38;98311.28;;;13.70
61977;BMP280;45905;50.570;10.428;2022-07-15T02:58:07;98319.06;;;13.68
61977;BMP280;45905;50.570;10.428;2022-07-15T03:00:34;98312.91;;;13.63
61977;BMP280;45905;50.570;10.428;2022-07-15T03:03:03;98314.81;;;13.61
61977;BMP280;45905;50.570;10.428;2022-07-15T03:05:34;98317.69;;;13.58
61977;BMP280;45905;50.570;10.428;2022-07-15T03:08:02;98313.72;;;13.55
61977;BMP280;45905;50.570;10.428;2022-07-15T03:10:29;98314.03;;;13.53
61977;BMP280;45905;50.570;10.428;2022-07-15T03:12:56;98320.25;;;13.50
61977;BMP280;45905;50.570;10.428;2022-07-15T03:15:23;98322.00;;;13.50
61977;BMP280;45905;50.570;10.428;2022-07-15T03:17:51;98313.91;;;13.46
61977;BMP280;45905;50.570;10.428;2022-07-15T03:20:18;98320.91;;;13.44
61977;BMP280;45905;50.570;10.428;2022-07-15T03:22:48;98321.84;;;13.43
61977;BMP280;45905;50.570;10.428;2022-07-15T03:25:15;98330.94;;;13.38
61977;BMP280;45905;50.570;10.428;2022-07-15T03:27:42;98329.34;;;13.37
61977;BMP280;45905;50.570;10.428;2022-07-15T03:30:12;98333.81;;;13.35
61977;BMP280;45905;50.570;10.428;2022-07-15T03:32:41;98345.25;;;13.31
61977;BMP280;45905;50.570;10.428;2022-07-15T03:35:10;98341.31;;;13.29
61977;BMP280;45905;50.570;10.428;2022-07-15T03:37:38;98343.34;;;13.25
61977;BMP280;45905;50.570;10.428;2022-07-15T03:40:06;98352.09;;;13.23
61977;BMP280;45905;50.570;10.428;2022-07-15T03:42:36;98346.22;;;13.22
61977;BMP280;45905;50.570;10.428;2022-07-15T03:45:04;98348.75;;;13.22
61977;BMP280;45905;50.570;10.428;2022-07-15T03:47:32;98356.56;;;13.21
61977;BMP280;45905;50.570;10.428;2022-07-15T03:50:04;98354.19;;;13.19
61977;BMP280;45905;50.570;10.428;2022-07-15T03:52:34;98358.63;;;13.17
61977;BMP280;45905;50.570;10.428;2022-07-15T03:55:01;98357.19;;;13.15
61977;BMP280;45905;50.570;10.428;2022-07-15T03:57:29;98357.19;;;13.15
61977;BMP280;45905;50.570;10.428;2022-07-15T03:59:57;98347.03;;;13.15
61977;BMP280;45905;50.570;10.428;2022-07-15T04:02:24;98346.72;;;13.10
61977;BMP280;45905;50.570;10.428;2022-07-15T04:04:51;98343.22;;;12.96
61977;BMP280;45905;50.570;10.428;2022-07-15T04:07:19;98361.19;;;12.86
61977;BMP280;45905;50.570;10.428;2022-07-15T04:09:46;98355.31;;;12.86
61977;BMP280;45905;50.570;10.428;2022-07-15T04:12:13;98368.03;;;12.86
61977;BMP280;45905;50.570;10.428;2022-07-15T04:14:41;98370.38;;;12.87
61977;BMP280;45905;50.570;10.428;2022-07-15T04:17:08;98370.56;;;12.86
61977;BMP280;45905;50.570;10.428;2022-07-15T04:19:37;98373.91;;;12.86
61977;BMP280;45905;50.570;10.428;2022-07-15T04:22:05;98377.06;;;12.88
61977;BMP280;45905;50.570;10.428;2022-07-15T04:24:43;98384.38;;;12.83
61977;BMP280;45905;50.570;10.428;2022-07-15T04:27:13;98380.41;;;12.81
61977;BMP280;45905;50.570;10.428;2022-07-15T04:29:40;98375.81;;;12.84
61977;BMP280;45905;50.570;10.428;2022-07-15T04:32:10;98382.94;;;12.89
61977;BMP280;45905;50.570;10.428;2022-07-15T04:34:41;98381.53;;;12.94
61977;BMP280;45905;50.570;10.428;2022-07-15T04:37:08;98393.75;;;12.98
61977;BMP280;45905;50.570;10.428;2022-07-15T04:39:38;98392.66;;;13.01
61977;BMP280;45905;50.570;10.428;2022-07-15T04:42:05;98400.59;;;13.06
61977;BMP280;45905;50.570;10.428;2022-07-15T04:44:36;98403.47;;;13.11
61977;BMP280;45905;50.570;10.428;2022-07-15T04:47:07;98408.56;;;13.11
61977;BMP280;45905;50.570;10.428;2022-07-15T04:49:40;98420.94;;;13.14
61977;BMP280;45905;50.570;10.428;2022-07-15T04:52:26;98419.38;;;13.13
61977;BMP280;45905;50.570;10.428;2022-07-15T04:54:54;98415.56;;;13.16
61977;BMP280;45905;50.570;10.428;2022-07-15T04:57:21;98414.59;;;13.17
61977;BMP280;45905;50.570;10.428;2022-07-15T04:59:49;98422.06;;;13.11
61977;BMP280;45905;50.570;10.428;2022-07-15T05:02:17;98420.00;;;13.07
61977;BMP280;45905;50.570;10.428;2022-07-15T05:04:47;98424.44;;;13.05
61977;BMP280;45905;50.570;10.428;2022-07-15T05:07:16;98425.56;;;13.02
61977;BMP280;45905;50.570;10.428;2022-07-15T05:09:44;98427.63;;;13.07
61977;BMP280;45905;50.570;10.428;2022-07-15T05:12:12;98431.31;;;13.12
61977;BMP280;45905;50.570;10.428;2022-07-15T05:14:46;98425.88;;;13.15
61977;BMP280;45905;50.570;10.428;2022-07-15T05:17:15;98421.13;;;13.20
61977;BMP280;45905;50.570;10.428;2022-07-15T05:19:44;98415.41;;;13.26
61977;BMP280;45905;50.570;10.428;2022-07-15T05:22:17;98426.66;;;13.23
61977;BMP280;45905;50.570;10.428;2022-07-15T05:24:45;98418.44;;;13.21
61977;BMP280;45905;50.570;10.428;2022-07-15T05:27:15;98421.94;;;13.20
61977;BMP280;45905;50.570;10.428;2022-07-15T05:29:46;98424.47;;;13.20
61977;BMP280;45905;50.570;10.428;2022-07-15T05:32:13;98416.66;;;13.22
61977;BMP280;45905;50.570;10.428;2022-07-15T05:34:40;98420.97;;;13.29
61977;BMP280;45905;50.570;10.428;2022-07-15T05:37:10;98431.94;;;13.37
61977;BMP280;45905;50.570;10.428;2022-07-15T05:39:39;98432.88;;;13.44
61977;BMP280;45905;50.570;10.428;2022-07-15T05:42:33;98432.06;;;13.52
61977;BMP280;45905;50.570;10.428;2022-07-15T05:45:01;98440.66;;;13.58
61977;BMP280;45905;50.570;10.428;2022-07-15T05:47:28;98434.16;;;13.64
61977;BMP280;45905;50.570;10.428;2022-07-15T05:49:59;98440.97;;;13.71
61977;BMP280;45905;50.570;10.428;2022-07-15T05:52:29;98435.56;;;13.74
61977;BMP280;45905;50.570;10.428;2022-07-15T05:55:02;98434.91;;;13.80
61977;BMP280;45905;50.570;10.428;2022-07-15T05:57:32;98439.84;;;13.89
61977;BMP280;45905;50.570;10.428;2022-07-15T06:00:00;98443.19;;;13.97
61977;BMP280;45905;50.570;10.428;2022-07-15T06:02:40;98440.75;;;14.04
61977;BMP280;45905;50.570;10.428;2022-07-15T06:05:15;98433.59;;;14.07
61977;BMP280;45905;50.570;10.428;2022-07-15T06:07:47;98433.72;;;14.13
61977;BMP280;45905;50.570;10.428;2022-07-15T06:10:18;98443.25;;;14.19
61977;BMP280;45905;50.570;10.428;2022-07-15T06:12:45;98445.97;;;14.26
61977;BMP280;45905;50.570;10.428;2022-07-15T06:15:12;98449.75;;;14.30
61977;BMP280;45905;50.570;10.428;2022-07-15T06:17:40;98448.75;;;14.38
61977;BMP280;45905;50.570;10.428;2022-07-15T06:20:09;98443.59;;;14.54
61977;BMP280;45905;50.570;10.428;2022-07-15T06:22:39;98449.88;;;14.73
61977;BMP280;45905;50.570;10.428;2022-07-15T06:25:07;98438.97;;;14.87
61977;BMP280;45905;50.570;10.428;2022-07-15T06:27:35;98438.94;;;14.95
61977;BMP280;45905;50.570;10.428;2022-07-15T06:30:04;98443.34;;;15.01
61977;BMP280;45905;50.570;10.428;2022-07-15T06:32:32;98449.81;;;15.11
61977;BMP280;45905;50.570;10.428;2022-07-15T06:35:00;98444.94;;;15.24
61977;BMP280;45905;50.570;10.428;2022-07-15T06:37:27;98435.28;;;15.33
61977;BMP280;45905;50.570;10.428;2022-07-15T06:39:57;98443.00;;;15.47
61977;BMP280;45905;50.570;10.428;2022-07-15T06:42:25;98434.91;;;15.58
61977;BMP280;45905;50.570;10.428;2022-07-15T06:45:01;98437.69;;;15.71
61977;BMP280;45905;50.570;10.428;2022-07-15T06:47:29;98443.00;;;15.84
61977;BMP280;45905;50.570;10.428;2022-07-15T06:49:59;98442.13;;;15.91
61977;BMP280;45905;50.570;10.428;2022-07-15T06:52:27;98435.81;;;16.01
61977;BMP280;45905;50.570;10.428;2022-07-15T06:54:55;98443.00;;;16.12
61977;BMP280;45905;50.570;10.428;2022-07-15T06:57:23;98435.72;;;16.23
61977;BMP280;45905;50.570;10.428;2022-07-15T06:59:53;98434.81;;;16.30
61977;BMP280;45905;50.570;10.428;2022-07-15T07:02:23;98439.31;;;16.42
61977;BMP280;45905;50.570;10.428;2022-07-15T07:04:51;98435.84;;;16.50
61977;BMP280;45905;50.570;10.428;2022-07-15T07:07:18;98442.47;;;16.59
61977;BMP280;45905;50.570;10.428;2022-07-15T07:09:46;98444.66;;;16.61
61977;BMP280;45905;50.570;10.428;2022-07-15T07:12:13;98451.00;;;16.65
61977;BMP280;45905;50.570;10.428;2022-07-15T07:14:40;98446.16;;;16.70
61977;BMP280;45905;50.570;10.428;2022-07-15T07:17:07;98442.06;;;16.76
61977;BMP280;45905;50.570;10.428;2022-07-15T07:19:34;98448.41;;;16.80
61977;BMP280;45905;50.570;10.428;2022-07-15T07:22:02;98438.25;;;16.86
61977;BMP280;45905;50.570;10.428;2022-07-15T07:24:29;98438.31;;;16.92
61977;BMP280;45905;50.570;10.428;2022-07-15T07:26:56;98436.03;;;16.97
61977;BMP280;45905;50.570;10.428;2022-07-15T07:29:28;98443.16;;;17.01
61977;BMP280;45905;50.570;10.428;2022-07-15T07:31:56;98445.38;;;17.04
61977;BMP280;45905;50.570;10.428;2022-07-15T07:34:23;98437.94;;;17.09
61977;BMP280;45905;50.570;10.428;2022-07-15T07:36:50;98438.53;;;17.11
61977;BMP280;45905;50.570;10.428;2022-07-15T07:39:18;98436.94;;;17.10
61977;BMP280;45905;50.570;10.428;2022-07-15T07:41:45;98437.41;;;17.14
61977;BMP280;45905;50.570;10.428;2022-07-15T07:44:12;98430.75;;;17.19
61977;BMP280;45905;50.570;10.428;2022-07-15T07:46:39;98448.53;;;17.27
61977;BMP280;45905;50.570;10.428;2022-07-15T07:49:07;98440.63;;;17.22
61977;BMP280;45905;50.570;10.428;2022-07-15T07:51:54;98440.22;;;17.25
61977;BMP280;45905;50.570;10.428;2022-07-15T07:54:22;98428.03;;;17.27
61977;BMP280;45905;50.570;10.428;2022-07-15T07:56:49;98436.78;;;17.32
61977;BMP280;45905;50.570;10.428;2022-07-15T07:59:17;98436.84;;;17.38
61977;BMP280;45905;50.570;10.428;2022-07-15T08:01:44;98433.53;;;17.44
61977;BMP280;45905;50.570;10.428;2022-07-15T08:04:12;98433.16;;;17.47
61977;BMP280;45905;50.570;10.428;2022-07-15T08:06:41;98432.81;;;17.50
61977;BMP280;45905;50.570;10.428;2022-07-15T08:09:08;98432.22;;;17.55
61977;BMP280;45905;50.570;10.428;2022-07-15T08:11:36;98429.91;;;17.59
61977;BMP280;45905;50.570;10.428;2022-07-15T08:14:03;98434.47;;;17.64
61977;BMP280;45905;50.570;10.428;2022-07-15T08:16:32;98441.19;;;17.65
61977;BMP280;45905;50.570;10.428;2022-07-15T08:19:00;98444.94;;;17.69
61977;BMP280;45905;50.570;10.428;2022-07-15T08:21:27;98443.78;;;17.71
61977;BMP280;45905;50.570;10.428;2022-07-15T08:23:54;98437.31;;;17.75
61977;BMP280;45905;50.570;10.428;2022-07-15T08:26:22;98447.00;;;17.79
61977;BMP280;45905;50.570;10.428;2022-07-15T08:28:53;98441.09;;;17.79
61977;BMP280;45905;50.570;10.428;2022-07-15T08:31:34;98440.28;;;17.78
61977;BMP280;45905;50.570;10.428;2022-07-15T08:34:03;98437.53;;;17.80
61977;BMP280;45905;50.570;10.428;2022-07-15T08:36:31;98447.78;;;17.80
61977;BMP280;45905;50.570;10.428;2022-07-15T08:39:01;98443.28;;;17.82
61977;BMP280;45905;50.570;10.428;2022-07-15T08:41:29;98448.47;;;17.88
61977;BMP280;45905;50.570;10.428;2022-07-15T08:44:00;98445.94;;;17.95
61977;BMP280;45905;50.570;10.428;2022-07-15T08:46:29;98446.00;;;18.01
61977;BMP280;45905;50.570;10.428;2022-07-15T08:49:07;98454.31;;;18.03
61977;BMP280;45905;50.570;10.428;2022-07-15T08:51:47;98443.06;;;18.04
61977;BMP280;45905;50.570;10.428;2022-07-15T08:54:15;98441.28;;;18.04
61977;BMP280;45905;50.570;10.428;2022-07-15T08:56:43;98442.50;;;18.08
61977;BMP280;45905;50.570;10.428;2022-07-15T08:59:13;98438.00;;;18.10
61977;BMP280;45905;50.570;10.428;2022-07-15T09:01:45;98439.34;;;18.13
61977;BMP280;45905;50.570;10.428;2022-07-15T09:04:13;98436.25;;;18.17
61977;BMP280;45905;50.570;10.428;2022-07-15T09:06:48;98439.03;;;18.22
61977;BMP280;45905;50.570;10.428;2022-07-15T09:09:30;98443.41;;;18.28
61977;BMP280;45905;50.570;10.428;2022-07-15T09:12:05;98440.06;;;18.33
61977;BMP280;45905;50.570;10.428;2022-07-15T09:14:44;98440.09;;;18.40
61977;BMP280;45905;50.570;10.428;2022-07-15T09:20:02;98444.84;;;18.43
61977;BMP280;45905;50.570;10.428;2022-07-15T09:22:46;98446.25;;;18.45
61977;BMP280;45905;50.570;10.428;2022-07-15T09:25:15;98453.00;;;18.52
61977;BMP280;45905;50.570;10.428;2022-07-15T09:27:44;98446.13;;;18.59
61977;BMP280;45905;50.570;10.428;2022-07-15T09:30:29;98453.81;;;18.66
61977;BMP280;45905;50.570;10.428;2022-07-15T09:33:27;98449.91;;;18.70
61977;BMP280;45905;50.570;10.428;2022-07-15T09:36:20;98453.44;;;18.69
61977;BMP280;45905;50.570;10.428;2022-07-15T09:38:54;98446.38;;;18.71
61977;BMP280;45905;50.570;10.428;2022-07-15T09:44:07;98449.94;;;18.76
61977;BMP280;45905;50.570;10.428;2022-07-15T09:46:58;98456.31;;;18.80
61977;BMP280;45905;50.570;10.428;2022-07-15T09:52:09;98461.03;;;18.83
61977;BMP280;45905;50.570;10.428;2022-07-15T09:54:41;98455.31;;;18.81
61977;BMP280;45905;50.570;10.428;2022-07-15T09:57:13;98452.34;;;18.84
61977;BMP280;45905;50.570;10.428;2022-07-15T09:59:48;98452.16;;;18.91
61977;BMP280;45905;50.570;10.428;2022-07-15T10:02:16;98451.81;;;19.01
61977;BMP280;45905;50.570;10.428;2022-07-15T10:04:43;98445.72;;;19.08
61977;BMP280;45905;50.570;10.428;2022-07-15T10:07:16;98458.75;;;19.13
61977;BMP280;45905;50.570;10.428;2022-07-15T10:10:00;98450.88;;;19.21
61977;BMP280;45905;50.570;10.428;2022-07-15T10:16:17;98454.63;;;19.37
61977;BMP280;45905;50.570;10.428;2022-07-15T10:21:55;98443.97;;;19.53
61977;BMP280;45905;50.570;10.428;2022-07-15T10:27:54;98445.41;;;19.74
61977;BMP280;45905;50.570;10.428;2022-07-15T10:30:25;98447.38;;;19.85
61977;BMP280;45905;50.570;10.428;2022-07-15T10:33:25;98438.25;;;19.89
61977;BMP280;45905;50.570;10.428;2022-07-15T10:36:03;98438.47;;;19.94
61977;BMP280;45905;50.570;10.428;2022-07-15T10:38:36;98437.25;;;20.03
61977;BMP280;45905;50.570;10.428;2022-07-15T10:41:15;98434.25;;;20.06
61977;BMP280;45905;50.570;10.428;2022-07-15T10:43:53;98422.78;;;20.08
61977;BMP280;45905;50.570;10.428;2022-07-15T10:46:28;98426.31;;;20.13
61977;BMP280;45905;50.570;10.428;2022-07-15T10:54:03;98418.19;;;20.29
61977;BMP280;45905;50.570;10.428;2022-07-15T10:56:43;98428.09;;;20.38
61977;BMP280;45905;50.570;10.428;2022-07-15T11:04:34;98428.19;;;20.62
61977;BMP280;45905;50.570;10.428;2022-07-15T11:15:12;98405.97;;;20.67
61977;BMP280;45905;50.570;10.428;2022-07-15T11:17:43;98413.88;;;20.72
61977;BMP280;45905;50.570;10.428;2022-07-15T11:20:29;98404.53;;;20.78
61977;BMP280;45905;50.570;10.428;2022-07-15T11:22:59;98397.78;;;20.83
61977;BMP280;45905;50.570;10.428;2022-07-15T11:25:39;98400.94;;;20.85
61977;BMP280;45905;50.570;10.428;2022-07-15T11:30:46;98412.19;;;20.90
61977;BMP280;45905;50.570;10.428;2022-07-15T11:33:24;98414.34;;;20.93
61977;BMP280;45905;50.570;10.428;2022-07-15T11:36:00;98411.41;;;20.90
61977;BMP280;45905;50.570;10.428;2022-07-15T11:38:32;98411.41;;;20.90
61977;BMP280;45905;50.570;10.428;2022-07-15T11:41:04;98416.91;;;20.93
61977;BMP280;45905;50.570;10.428;2022-07-15T11:44:05;98407.63;;;20.92
61977;BMP280;45905;50.570;10.428;2022-07-15T11:46:51;98409.19;;;20.93
61977;BMP280;45905;50.570;10.428;2022-07-15T11:49:35;98406.22;;;20.96
61977;BMP280;45905;50.570;10.428;2022-07-15T11:52:21;98401.66;;;20.98
61977;BMP280;45905;50.570;10.428;2022-07-15T11:54:49;98399.44;;;21.02
61977;BMP280;45905;50.570;10.428;2022-07-15T11:57:16;98399.81;;;21.05
61977;BMP280;45905;50.570;10.428;2022-07-15T11:59:55;98394.81;;;21.10
61977;BMP280;45905;50.570;10.428;2022-07-15T12:02:28;98388.03;;;21.22
61977;BMP280;45905;50.570;10.428;2022-07-15T12:05:11;98391.09;;;21.36
61977;BMP280;45905;50.570;10.428;2022-07-15T12:07:46;98387.84;;;21.47
61977;BMP280;45905;50.570;10.428;2022-07-15T12:10:15;98387.22;;;21.51
61977;BMP280;45905;50.570;10.428;2022-07-15T12:12:56;98384.63;;;21.51
61977;BMP280;45905;50.570;10.428;2022-07-15T12:15:29;98400.03;;;21.58
61977;BMP280;45905;50.570;10.428;2022-07-15T12:17:57;98391.44;;;21.63
61977;BMP280;45905;50.570;10.428;2022-07-15T12:20:25;98387.06;;;21.70
61977;BMP280;45905;50.570;10.428;2022-07-15T12:23:09;98385.25;;;21.71
61977;BMP280;45905;50.570;10.428;2022-07-15T12:25:37;98386.91;;;21.83
61977;BMP280;45905;50.570;10.428;2022-07-15T12:28:05;98377.91;;;21.92
61977;BMP280;45905;50.570;10.428;2022-07-15T12:30:39;98382.97;;;22.04
61977;BMP280;45905;50.570;10.428;2022-07-15T12:33:19;98380.94;;;22.06
61977;BMP280;45905;50.570;10.428;2022-07-15T12:35:49;98360.28;;;22.06
61977;BMP280;45905;50.570;10.428;2022-07-15T12:38:30;98367.47;;;22.04
61977;BMP280;45905;50.570;10.428;2022-07-15T12:41:06;98362.72;;;22.19
61977;BMP280;45905;50.570;10.428;2022-07-15T12:43:52;98361.84;;;22.25
61977;BMP280;45905;50.570;10.428;2022-07-15T12:46:20;98369.38;;;22.26
61977;BMP280;45905;50.570;10.428;2022-07-15T12:48:49;98363.91;;;22.23
61977;BMP280;45905;50.570;10.428;2022-07-15T12:51:23;98366.47;;;22.23
61977;BMP280;45905;50.570;10.428;2022-07-15T12:53:52;98370.97;;;22.27
61977;BMP280;45905;50.570;10.428;2022-07-15T12:56:29;98363.81;;;22.29
61977;BMP280;45905;50.570;10.428;2022-07-15T12:58:57;98353.81;;;22.33
61977;BMP280;45905;50.570;10.428;2022-07-15T13:01:24;98364.09;;;22.39
61977;BMP280;45905;50.570;10.428;2022-07-15T13:03:51;98356.13;;;22.40
61977;BMP280;45905;50.570;10.428;2022-07-15T13:06:19;98355.34;;;22.40
61977;BMP280;45905;50.570;10.428;2022-07-15T13:08:46;98349.88;;;22.48
61977;BMP280;45905;50.570;10.428;2022-07-15T13:11:13;98346.78;;;22.57
61977;BMP280;45905;50.570;10.428;2022-07-15T13:13:41;98341.59;;;22.57
61977;BMP280;45905;50.570;10.428;2022-07-15T13:16:09;98346.34;;;22.60
61977;BMP280;45905;50.570;10.428;2022-07-15T13:18:37;98335.84;;;22.73
61977;BMP280;45905;50.570;10.428;2022-07-15T13:21:05;98342.50;;;22.80
61977;BMP280;45905;50.570;10.428;2022-07-15T13:23:32;98340.38;;;22.88
61977;BMP280;45905;50.570;10.428;2022-07-15T13:25:59;98336.38;;;22.92
61977;BMP280;45905;50.570;10.428;2022-07-15T13:28:27;98327.25;;;22.90
61977;BMP280;45905;50.570;10.428;2022-07-15T13:30:54;98331.84;;;22.88
61977;BMP280;45905;50.570;10.428;2022-07-15T13:33:22;98335.25;;;22.99
61977;BMP280;45905;50.570;10.428;2022-07-15T13:35:50;98327.63;;;23.15
61977;BMP280;45905;50.570;10.428;2022-07-15T13:38:17;98328.38;;;23.33
61977;BMP280;45905;50.570;10.428;2022-07-15T13:40:44;98330.63;;;23.52
61977;BMP280;45905;50.570;10.428;2022-07-15T13:43:11;98329.28;;;23.61
61977;BMP280;45905;50.570;10.428;2022-07-15T13:45:39;98334.22;;;23.63
61977;BMP280;45905;50.570;10.428;2022-07-15T13:48:13;98336.03;;;23.62
61977;BMP280;45905;50.570;10.428;2022-07-15T13:50:40;98332.16;;;23.65
61977;BMP280;45905;50.570;10.428;2022-07-15T13:53:26;98335.22;;;23.62
61977;BMP280;45905;50.570;10.428;2022-07-15T13:55:54;98327.69;;;23.60
61977;BMP280;45905;50.570;10.428;2022-07-15T13:58:22;98318.94;;;23.61
61977;BMP280;45905;50.570;10.428;2022-07-15T14:00:49;98313.50;;;23.74
61977;BMP280;45905;50.570;10.428;2022-07-15T14:03:17;98311.69;;;23.86
61977;BMP280;45905;50.570;10.428;2022-07-15T14:05:45;98317.09;;;23.95
61977;BMP280;45905;50.570;10.428;2022-07-15T14:08:12;98315.31;;;23.96
61977;BMP280;45905;50.570;10.428;2022-07-15T14:10:40;98314.38;;;23.90
61977;BMP280;45905;50.570;10.428;2022-07-15T14:13:08;98313.19;;;23.71
61977;BMP280;45905;50.570;10.428;2022-07-15T14:15:35;98323.63;;;23.64
61977;BMP280;45905;50.570;10.428;2022-07-15T14:18:06;98318.94;;;23.61
61977;BMP280;45905;50.570;10.428;2022-07-15T14:20:34;98323.63;;;23.64
61977;BMP280;45905;50.570;10.428;2022-07-15T14:23:02;98317.22;;;23.67
61977;BMP280;45905;50.570;10.428;2022-07-15T14:25:29;98324.53;;;23.81
61977;BMP280;45905;50.570;10.428;2022-07-15T14:27:58;98313.91;;;23.93
61977;BMP280;45905;50.570;10.428;2022-07-15T14:30:25;98314.16;;;24.03
61977;BMP280;45905;50.570;10.428;2022-07-15T14:32:53;98308.19;;;24.14
61977;BMP280;45905;50.570;10.428;2022-07-15T14:35:22;98310.03;;;24.29
61977;BMP280;45905;50.570;10.428;2022-07-15T14:37:50;98309.88;;;24.36
61977;BMP280;45905;50.570;10.428;2022-07-15T14:40:18;98305.53;;;24.52
61977;BMP280;45905;50.570;10.428;2022-07-15T14:42:48;98297.84;;;24.68
61977;BMP280;45905;50.570;10.428;2022-07-15T14:45:15;98298.88;;;24.84
61977;BMP280;45905;50.570;10.428;2022-07-15T14:47:42;98292.91;;;24.83
61977;BMP280;45905;50.570;10.428;2022-07-15T14:50:09;98297.66;;;24.86
61977;BMP280;45905;50.570;10.428;2022-07-15T14:52:37;98291.06;;;24.95
61977;BMP280;45905;50.570;10.428;2022-07-15T14:55:05;98294.03;;;25.03